createdAt,value
2019-06-08T00:00:27.290Z,13.67
2019-06-08T00:03:32.789Z,13.56
2019-06-08T00:06:38.318Z,13.41
2019-06-08T00:09:43.585Z,13.20
2019-06-08T00:12:48.743Z,13.02
2019-06-08T00:15:55.814Z,12.94
2019-06-08T00:19:10.560Z,13.02
2019-06-08T00:22:25.553Z,13.01
2019-06-08T00:25:31.079Z,12.88
2019-06-08T00:28:36.247Z,12.75
2019-06-08T00:31:41.509Z,12.62
2019-06-08T00:34:46.683Z,12.56
2019-06-08T00:37:51.962Z,12.88
2019-06-08T00:40:57.160Z,12.90
2019-06-08T00:44:02.310Z,12.81
2019-06-08T00:47:07.653Z,12.64
2019-06-08T00:50:13.041Z,12.76
2019-06-08T00:53:19.739Z,12.74
2019-06-08T00:56:26.021Z,12.80
2019-06-08T00:59:32.298Z,12.77
2019-06-08T01:02:41.708Z,12.85
2019-06-08T01:05:46.913Z,12.80
2019-06-08T01:08:52.129Z,12.75
2019-06-08T01:11:57.285Z,12.51
2019-06-08T01:15:02.793Z,12.30
2019-06-08T01:18:08.247Z,12.51
2019-06-08T01:21:13.469Z,12.56
2019-06-08T01:24:19.653Z,12.53
2019-06-08T01:27:26.089Z,12.94
2019-06-08T01:30:31.795Z,13.04
2019-06-08T01:33:36.941Z,13.32
2019-06-08T01:36:42.262Z,13.43
2019-06-08T01:39:47.440Z,13.45
2019-06-08T01:42:54.259Z,13.47
2019-06-08T01:46:01.134Z,13.31
2019-06-08T01:49:06.358Z,12.94
2019-06-08T01:52:11.504Z,12.84
2019-06-08T01:55:16.648Z,12.85
2019-06-08T01:58:27.424Z,12.69
2019-06-08T02:01:34.237Z,12.78
2019-06-08T02:04:39.605Z,12.73
2019-06-08T02:07:44.794Z,12.77
2019-06-08T02:10:49.878Z,12.84
2019-06-08T02:13:55.019Z,13.01
2019-06-08T02:17:01.260Z,13.29
2019-06-08T02:20:08.118Z,13.03
2019-06-08T02:23:13.284Z,12.82
2019-06-08T02:26:18.470Z,12.86
2019-06-08T02:29:23.670Z,12.61
2019-06-08T02:32:31.108Z,12.91
2019-06-08T02:35:37.657Z,12.74
2019-06-08T02:38:42.629Z,12.48
2019-06-08T02:41:47.799Z,12.79
2019-06-08T02:44:53.975Z,12.88
2019-06-08T02:48:00.191Z,12.80
2019-06-08T02:51:07.030Z,13.06
2019-06-08T02:54:12.760Z,12.90
2019-06-08T02:57:19.932Z,12.79
2019-06-08T03:00:25.259Z,12.91
2019-06-08T03:03:33.730Z,12.89
2019-06-08T03:06:43.086Z,13.05
2019-06-08T03:09:50.564Z,12.91
2019-06-08T03:12:57.009Z,13.23
2019-06-08T03:16:02.249Z,13.11
2019-06-08T03:19:21.059Z,13.04
2019-06-08T03:22:14.256Z,12.95
2019-06-08T03:25:19.409Z,12.78
2019-06-08T03:28:24.967Z,13.03
2019-06-08T03:31:30.091Z,13.10
2019-06-08T03:34:39.686Z,12.93
2019-06-08T03:37:43.959Z,13.01
2019-06-08T03:40:49.051Z,12.99
2019-06-08T03:43:55.260Z,13.20
2019-06-08T03:47:00.475Z,13.50
2019-06-08T03:50:06.070Z,13.79
2019-06-08T03:53:11.215Z,13.84
2019-06-08T03:56:17.194Z,14.21
2019-06-08T03:59:22.415Z,13.91
2019-06-08T04:02:27.525Z,13.92
2019-06-08T04:05:32.689Z,13.78
2019-06-08T04:08:38.447Z,13.85
2019-06-08T04:11:46.587Z,13.91
2019-06-08T04:14:51.452Z,13.76
2019-06-08T04:17:56.615Z,13.67
2019-06-08T04:21:01.776Z,13.79
2019-06-08T04:24:06.943Z,13.86
2019-06-08T04:27:12.106Z,14.11
2019-06-08T04:30:17.484Z,14.66
2019-06-08T04:33:22.685Z,14.97
2019-06-08T04:36:27.939Z,14.87
2019-06-08T04:39:33.172Z,14.65
2019-06-08T04:42:39.331Z,14.75
2019-06-08T04:45:45.894Z,14.55
2019-06-08T04:48:51.527Z,14.70
2019-06-08T04:51:56.740Z,15.13
2019-06-08T04:55:01.997Z,17.03
2019-06-08T04:58:08.356Z,19.27
2019-06-08T05:01:13.557Z,20.80
2019-06-08T05:04:18.692Z,21.79
2019-06-08T05:07:24.016Z,22.57
2019-06-08T05:10:29.292Z,23.01
2019-06-08T05:13:34.510Z,22.53
2019-06-08T05:16:40.933Z,22.96
2019-06-08T05:19:47.434Z,23.89
2019-06-08T05:22:52.742Z,24.89
2019-06-08T05:25:57.950Z,25.18
2019-06-08T05:29:03.170Z,25.29
2019-06-08T05:32:08.469Z,25.24
2019-06-08T05:35:13.897Z,22.54
2019-06-08T05:38:19.133Z,23.47
2019-06-08T05:41:25.591Z,23.82
2019-06-08T05:44:30.748Z,22.92
2019-06-08T05:47:35.937Z,23.83
2019-06-08T05:50:56.880Z,23.40
2019-06-08T05:53:47.971Z,22.25
2019-06-08T05:56:53.126Z,21.66
2019-06-08T05:59:58.382Z,21.34
2019-06-08T06:03:03.657Z,22.02
2019-06-08T06:06:08.844Z,21.31
2019-06-08T06:09:13.966Z,20.98
2019-06-08T06:12:19.226Z,20.42
2019-06-08T06:15:24.361Z,20.14
2019-06-08T06:18:29.542Z,19.26
2019-06-08T06:21:34.671Z,18.26
2019-06-08T06:24:41.723Z,17.49
2019-06-08T06:27:47.620Z,17.35
2019-06-08T06:30:53.030Z,17.26
2019-06-08T06:33:58.264Z,17.24
2019-06-08T06:37:03.530Z,16.89
2019-06-08T06:40:10.172Z,17.16
2019-06-08T06:43:15.311Z,16.78
2019-06-08T06:46:20.559Z,16.59
2019-06-08T06:49:25.779Z,16.41
2019-06-08T06:52:30.990Z,16.56
2019-06-08T06:55:36.143Z,16.50
2019-06-08T06:58:41.346Z,16.78
2019-06-08T07:01:47.527Z,16.55
2019-06-08T07:04:54.196Z,16.37
2019-06-08T07:07:59.635Z,16.78
2019-06-08T07:11:04.799Z,17.73
2019-06-08T07:14:09.987Z,18.26
2019-06-08T07:17:15.119Z,19.24
2019-06-08T07:20:20.270Z,18.26
2019-06-08T07:23:25.466Z,18.03
2019-06-08T07:26:30.662Z,17.24
2019-06-08T07:29:35.921Z,17.01
2019-06-08T07:32:41.085Z,16.78
2019-06-08T07:35:47.001Z,17.06
2019-06-08T07:38:55.653Z,18.11
2019-06-08T07:42:00.227Z,17.54
2019-06-08T07:45:05.830Z,17.35
2019-06-08T07:48:11.042Z,17.23
2019-06-08T07:51:16.221Z,16.86
2019-06-08T07:54:21.412Z,16.59
2019-06-08T07:57:26.567Z,16.99
2019-06-08T08:00:31.861Z,17.02
2019-06-08T08:03:36.996Z,16.80
2019-06-08T08:06:42.187Z,17.01
2019-06-08T08:09:48.627Z,17.18
2019-06-08T08:12:54.769Z,17.58
2019-06-08T08:16:00.681Z,17.36
2019-06-08T08:19:06.104Z,17.55
2019-06-08T08:22:22.084Z,17.80
2019-06-08T08:25:19.910Z,17.80
2019-06-08T08:28:25.077Z,17.47
2019-06-08T08:31:31.497Z,16.74
2019-06-08T08:34:38.182Z,16.73
2019-06-08T08:37:44.542Z,16.51
2019-06-08T08:40:51.267Z,16.73
2019-06-08T08:44:00.820Z,16.30
2019-06-08T08:47:03.698Z,16.28
2019-06-08T08:50:10.230Z,16.28
2019-06-08T08:53:17.884Z,16.43
2019-06-08T08:56:22.475Z,16.30
2019-06-08T08:59:28.137Z,16.52
2019-06-08T09:02:33.367Z,16.60
2019-06-08T09:05:38.656Z,16.84
2019-06-08T09:08:43.849Z,16.64
2019-06-08T09:11:51.732Z,17.08
2019-06-08T09:15:00.207Z,17.18
2019-06-08T09:18:04.231Z,16.86
2019-06-08T09:21:09.550Z,16.81
2019-06-08T09:24:14.868Z,16.72
2019-06-08T09:27:20.021Z,16.43
2019-06-08T09:30:27.397Z,16.77
2019-06-08T09:33:32.123Z,16.95
2019-06-08T09:36:37.643Z,16.74
2019-06-08T09:39:44.207Z,16.43
2019-06-08T09:42:51.440Z,16.51
2019-06-08T09:46:00.528Z,16.56
2019-06-08T09:49:06.492Z,16.71
2019-06-08T09:52:11.162Z,16.52
2019-06-08T09:55:18.117Z,16.33
2019-06-08T09:58:23.252Z,16.28
2019-06-08T10:01:28.766Z,16.35
2019-06-08T10:04:33.988Z,16.39
2019-06-08T10:07:39.284Z,16.46
2019-06-08T10:10:44.511Z,16.56
2019-06-08T10:13:49.746Z,16.93
2019-06-08T10:16:56.245Z,17.05
2019-06-08T10:20:03.464Z,17.45
2019-06-08T10:23:27.166Z,17.31
2019-06-08T10:26:17.851Z,17.03
2019-06-08T10:29:22.781Z,17.23
2019-06-08T10:32:28.316Z,17.02
2019-06-08T10:35:33.726Z,17.11
2019-06-08T10:38:41.183Z,17.35
2019-06-08T10:41:51.259Z,17.13
2019-06-08T10:44:53.616Z,16.89
2019-06-08T10:48:00.821Z,17.14
2019-06-08T10:51:07.618Z,17.02
2019-06-08T10:54:12.749Z,17.04
2019-06-08T10:57:18.318Z,17.25
2019-06-08T11:00:24.925Z,17.93
2019-06-08T11:03:30.711Z,17.99
2019-06-08T11:06:39.924Z,17.93
2019-06-08T11:09:42.914Z,17.82
2019-06-08T11:12:48.611Z,18.09
2019-06-08T11:15:53.908Z,18.77
2019-06-08T11:19:01.058Z,18.38
2019-06-08T11:22:11.834Z,18.83
2019-06-08T11:25:16.547Z,18.20
2019-06-08T11:28:21.696Z,18.43
2019-06-08T11:31:28.905Z,18.68
2019-06-08T11:34:33.762Z,18.48
2019-06-08T11:37:40.921Z,18.25
2019-06-08T11:40:47.849Z,18.13
2019-06-08T11:43:52.893Z,17.94
2019-06-08T11:46:58.171Z,18.35
2019-06-08T11:50:04.603Z,18.77
2019-06-08T11:53:14.151Z,18.48
2019-06-08T11:56:18.256Z,18.30
2019-06-08T11:59:24.851Z,18.73
2019-06-08T12:02:29.970Z,19.51
2019-06-08T12:05:35.157Z,19.90
2019-06-08T12:08:40.370Z,19.75
2019-06-08T12:11:47.923Z,19.98
2019-06-08T12:14:52.489Z,19.61
2019-06-08T12:17:58.726Z,19.48
2019-06-08T12:21:04.077Z,19.71
2019-06-08T12:24:10.401Z,19.45
2019-06-08T12:27:29.484Z,19.04
2019-06-08T12:30:26.262Z,18.58
2019-06-08T12:33:32.052Z,18.82
2019-06-08T12:36:37.606Z,18.59
2019-06-08T12:39:43.153Z,19.02
2019-06-08T12:42:48.359Z,19.32
2019-06-08T12:45:53.628Z,18.55
2019-06-08T12:48:58.988Z,18.65
2019-06-08T12:52:04.317Z,18.64
2019-06-08T12:55:14.701Z,19.47
2019-06-08T12:58:19.929Z,19.26
2019-06-08T13:01:23.447Z,19.61
2019-06-08T13:04:28.744Z,19.76
2019-06-08T13:07:33.918Z,19.89
2019-06-08T13:10:39.127Z,19.59
2019-06-08T13:13:48.746Z,20.24
2019-06-08T13:16:53.521Z,20.22
2019-06-08T13:19:58.797Z,19.90
2019-06-08T13:23:08.227Z,19.55
2019-06-08T13:26:15.121Z,19.13
2019-06-08T13:29:21.951Z,19.35
2019-06-08T13:32:28.583Z,18.73
2019-06-08T13:35:33.364Z,19.20
2019-06-08T13:38:38.540Z,19.33
2019-06-08T13:41:43.708Z,19.37
2019-06-08T13:44:48.892Z,19.32
2019-06-08T13:47:58.524Z,19.41
2019-06-08T13:51:02.827Z,19.03
2019-06-08T13:54:08.668Z,18.89
2019-06-08T13:57:15.017Z,19.01
2019-06-08T14:00:24.870Z,19.69
2019-06-08T14:03:30.141Z,19.57
2019-06-08T14:06:35.338Z,19.63
2019-06-08T14:09:40.468Z,19.31
2019-06-08T14:12:45.642Z,18.87
2019-06-08T14:15:50.835Z,19.11
2019-06-08T14:18:56.037Z,19.22
2019-06-08T14:22:01.270Z,19.21
2019-06-08T14:25:10.574Z,18.81
2019-06-08T14:28:13.403Z,19.59
2019-06-08T14:31:21.569Z,19.77
2019-06-08T14:34:26.895Z,19.87
2019-06-08T14:37:32.393Z,19.73
2019-06-08T14:40:38.625Z,19.55
2019-06-08T14:43:43.808Z,19.61
2019-06-08T14:46:48.967Z,19.99
2019-06-08T14:49:54.102Z,20.02
2019-06-08T14:52:59.337Z,19.67
2019-06-08T14:56:08.463Z,19.37
2019-06-08T14:59:11.433Z,19.30
2019-06-08T15:02:17.816Z,19.75
2019-06-08T15:05:23.468Z,19.65
2019-06-08T15:08:30.015Z,19.38
2019-06-08T15:11:37.952Z,19.75
2019-06-08T15:14:42.509Z,19.82
2019-06-08T15:17:47.834Z,19.47
2019-06-08T15:20:52.999Z,19.73
2019-06-08T15:23:58.288Z,19.70
2019-06-08T15:27:03.534Z,19.62
2019-06-08T15:30:08.968Z,19.69
2019-06-08T15:33:14.212Z,19.54
2019-06-08T15:36:21.727Z,19.76
2019-06-08T15:39:29.033Z,19.67
2019-06-08T15:42:33.585Z,19.72
2019-06-08T15:45:38.981Z,19.76
2019-06-08T15:48:44.144Z,19.69
2019-06-08T15:51:49.323Z,20.04
2019-06-08T15:54:54.471Z,20.06
2019-06-08T15:57:59.678Z,19.82
2019-06-08T16:01:04.840Z,19.62
2019-06-08T16:04:10.032Z,19.42
2019-06-08T16:07:16.476Z,19.50
2019-06-08T16:10:22.307Z,19.65
2019-06-08T16:13:28.515Z,19.77
2019-06-08T16:16:35.187Z,19.53
2019-06-08T16:19:40.569Z,19.32
2019-06-08T16:22:45.712Z,19.18
2019-06-08T16:25:50.903Z,19.23
2019-06-08T16:28:56.070Z,19.37
2019-06-08T16:32:01.230Z,19.30
2019-06-08T16:35:07.018Z,18.99
2019-06-08T16:38:12.295Z,18.81
2019-06-08T16:41:17.448Z,18.84
2019-06-08T16:44:22.632Z,18.92
2019-06-08T16:47:28.973Z,18.93
2019-06-08T16:50:34.382Z,19.06
2019-06-08T16:53:40.076Z,19.44
2019-06-08T16:56:45.416Z,19.57
2019-06-08T16:59:50.601Z,19.59
2019-06-08T17:02:55.867Z,19.82
2019-06-08T17:06:01.026Z,19.66
2019-06-08T17:09:08.036Z,19.31
2019-06-08T17:12:13.248Z,18.95
2019-06-08T17:15:18.723Z,18.76
2019-06-08T17:18:23.915Z,18.84
2019-06-08T17:21:30.117Z,19.09
2019-06-08T17:24:36.674Z,18.78
2019-06-08T17:27:41.999Z,18.54
2019-06-08T17:30:47.145Z,18.38
2019-06-08T17:33:53.005Z,18.24
2019-06-08T17:36:58.284Z,18.05
2019-06-08T17:40:03.597Z,17.67
2019-06-08T17:43:08.925Z,17.50
2019-06-08T17:46:14.090Z,16.89
2019-06-08T17:49:19.322Z,16.69
2019-06-08T17:52:27.720Z,16.65
2019-06-08T17:55:31.470Z,16.69
2019-06-08T17:58:37.222Z,16.36
2019-06-08T18:01:43.575Z,16.32
2019-06-08T18:04:48.875Z,16.43
2019-06-08T18:07:54.058Z,16.39
2019-06-08T18:10:59.274Z,16.19
2019-06-08T18:14:04.584Z,16.03
2019-06-08T18:17:09.805Z,15.89
2019-06-08T18:20:17.774Z,15.77
2019-06-08T18:23:22.544Z,15.71
2019-06-08T18:26:27.934Z,15.75
2019-06-08T18:29:34.526Z,15.53
2019-06-08T18:32:40.935Z,15.53
2019-06-08T18:35:49.114Z,15.61
2019-06-08T18:38:53.458Z,15.54
2019-06-08T18:41:59.093Z,15.54
2019-06-08T18:45:07.284Z,15.56
2019-06-08T18:48:11.960Z,15.54
2019-06-08T18:51:19.522Z,15.39
2019-06-08T18:54:27.597Z,15.38
2019-06-08T18:57:33.183Z,15.36
2019-06-08T19:00:43.028Z,15.27
2019-06-08T19:03:50.343Z,15.24
2019-06-08T19:06:54.244Z,15.48
2019-06-08T19:10:01.307Z,15.29
2019-06-08T19:13:08.097Z,15.16
2019-06-08T19:16:13.319Z,15.12
2019-06-08T19:19:18.843Z,14.96
2019-06-08T19:22:24.195Z,14.97
2019-06-08T19:25:31.470Z,14.83
2019-06-08T19:28:40.981Z,14.71
2019-06-08T19:31:45.391Z,14.66
2019-06-08T19:34:54.398Z,14.60
2019-06-08T19:37:58.312Z,14.52
2019-06-08T19:41:03.650Z,14.58
2019-06-08T19:44:08.843Z,14.68
2019-06-08T19:47:14.046Z,14.64
2019-06-08T19:50:19.330Z,14.59
2019-06-08T19:53:24.541Z,14.56
2019-06-08T19:56:29.731Z,14.56
2019-06-08T19:59:34.908Z,14.35
2019-06-08T20:02:40.570Z,14.37
2019-06-08T20:05:50.139Z,14.27
2019-06-08T20:08:53.402Z,14.14
2019-06-08T20:12:00.180Z,14.14
2019-06-08T20:15:08.295Z,14.05
2019-06-08T20:18:12.909Z,14.08
2019-06-08T20:21:18.244Z,14.00
2019-06-08T20:24:23.415Z,13.86
2019-06-08T20:27:28.591Z,13.75
2019-06-08T20:30:33.813Z,13.83
2019-06-08T20:33:39.050Z,13.89
2019-06-08T20:36:44.858Z,13.71
2019-06-08T20:40:03.016Z,13.61
2019-06-08T20:42:57.731Z,13.38
2019-06-08T20:46:05.349Z,13.36
2019-06-08T20:49:10.575Z,13.30
2019-06-08T20:52:17.611Z,13.05
2019-06-08T20:55:22.629Z,12.89
2019-06-08T20:58:28.309Z,12.95
2019-06-08T21:01:33.768Z,12.97
2019-06-08T21:04:38.967Z,12.90
2019-06-08T21:07:45.354Z,12.60
2019-06-08T21:10:52.939Z,12.34
2019-06-08T21:13:57.895Z,12.04
2019-06-08T21:17:03.016Z,11.85
2019-06-08T21:20:08.715Z,11.70
2019-06-08T21:23:14.018Z,11.56
2019-06-08T21:26:19.167Z,11.68
2019-06-08T21:29:26.737Z,11.60
2019-06-08T21:32:31.329Z,11.63
2019-06-08T21:35:36.501Z,11.68
2019-06-08T21:38:44.145Z,11.62
2019-06-08T21:41:52.128Z,11.43
2019-06-08T21:44:59.405Z,11.53
2019-06-08T21:48:02.532Z,11.28
2019-06-08T21:51:08.412Z,11.09
2019-06-08T21:54:13.605Z,11.01
2019-06-08T21:57:18.796Z,11.01
2019-06-08T22:00:38.668Z,11.12
2019-06-08T22:03:32.801Z,10.97
2019-06-08T22:06:38.391Z,10.87
2019-06-08T22:09:43.584Z,11.01
2019-06-08T22:12:48.775Z,10.95
2019-06-08T22:15:54.827Z,10.99
2019-06-08T22:19:00.965Z,11.09
2019-06-08T22:22:08.435Z,11.17
2019-06-08T22:25:13.240Z,11.25
2019-06-08T22:28:18.396Z,11.16
2019-06-08T22:31:23.639Z,11.14
2019-06-08T22:34:28.885Z,10.98
2019-06-08T22:37:34.075Z,11.36
2019-06-08T22:40:39.235Z,11.25
2019-06-08T22:43:44.384Z,11.44
2019-06-08T22:46:49.549Z,11.64
2019-06-08T22:49:56.906Z,11.56
2019-06-08T22:53:02.855Z,12.02
2019-06-08T22:56:08.375Z,11.84
2019-06-08T22:59:13.533Z,11.63
2019-06-08T23:02:18.690Z,11.88
2019-06-08T23:05:23.862Z,11.81
2019-06-08T23:08:29.026Z,11.85
2019-06-08T23:11:34.266Z,12.13
2019-06-08T23:14:39.587Z,12.04
2019-06-08T23:17:44.715Z,12.02
2019-06-08T23:20:49.880Z,11.90
2019-06-08T23:23:55.404Z,12.13
2019-06-08T23:27:00.586Z,12.00
2019-06-08T23:30:09.712Z,12.18
2019-06-08T23:33:12.943Z,12.12
2019-06-08T23:36:48.253Z,11.98
2019-06-08T23:39:25.149Z,11.79
2019-06-08T23:42:30.316Z,11.66
2019-06-08T23:45:37.558Z,11.57
2019-06-08T23:48:42.405Z,11.57
2019-06-08T23:51:47.626Z,11.66
2019-06-08T23:54:52.959Z,11.76
2019-06-08T23:58:00.415Z,11.74
